sensor_id;sensor_type;location;lat;lon;timestamp;P1;durP1;ratioP1;P2;durP2;ratioP2
16510;SDS011;8368;48.772;8.754;2022-12-18T00:01:27;30.30;;;15.00;;
16510;SDS011;8368;48.772;8.754;2022-12-18T00:03:58;32.23;;;14.77;;
16510;SDS011;8368;48.772;8.754;2022-12-18T00:06:26;32.43;;;13.77;;
16510;SDS011;8368;48.772;8.754;2022-12-18T00:08:54;32.77;;;14.20;;
16510;SDS011;8368;48.772;8.754;2022-12-18T00:11:22;31.90;;;15.07;;
16510;SDS011;8368;48.772;8.754;2022-12-18T00:13:49;31.73;;;13.93;;
16510;SDS011;8368;48.772;8.754;2022-12-18T00:16:17;32.80;;;14.70;;
16510;SDS011;8368;48.772;8.754;2022-12-18T00:18:47;32.90;;;14.47;;
16510;SDS011;8368;48.772;8.754;2022-12-18T00:21:14;34.07;;;16.00;;
16510;SDS011;8368;48.772;8.754;2022-12-18T00:23:41;30.23;;;14.27;;
16510;SDS011;8368;48.772;8.754;2022-12-18T00:26:10;31.07;;;14.80;;
16510;SDS011;8368;48.772;8.754;2022-12-18T00:28:37;30.03;;;14.33;;
16510;SDS011;8368;48.772;8.754;2022-12-18T00:31:04;35.43;;;14.43;;
16510;SDS011;8368;48.772;8.754;2022-12-18T00:33:34;31.07;;;14.07;;
16510;SDS011;8368;48.772;8.754;2022-12-18T00:36:01;36.10;;;14.93;;
16510;SDS011;8368;48.772;8.754;2022-12-18T00:38:28;31.97;;;13.70;;
16510;SDS011;8368;48.772;8.754;2022-12-18T00:40:53;30.83;;;13.87;;
16510;SDS011;8368;48.772;8.754;2022-12-18T00:43:19;35.03;;;14.63;;
16510;SDS011;8368;48.772;8.754;2022-12-18T00:45:45;32.63;;;14.13;;
16510;SDS011;8368;48.772;8.754;2022-12-18T00:48:10;33.37;;;13.50;;
16510;SDS011;8368;48.772;8.754;2022-12-18T00:50:36;27.00;;;12.63;;
16510;SDS011;8368;48.772;8.754;2022-12-18T00:53:01;32.23;;;13.53;;
16510;SDS011;8368;48.772;8.754;2022-12-18T00:55:27;29.97;;;12.13;;
16510;SDS011;8368;48.772;8.754;2022-12-18T00:57:52;34.90;;;12.90;;
16510;SDS011;8368;48.772;8.754;2022-12-18T01:00:18;33.13;;;13.70;;
16510;SDS011;8368;48.772;8.754;2022-12-18T01:02:44;33.33;;;13.37;;
16510;SDS011;8368;48.772;8.754;2022-12-18T01:05:10;28.87;;;13.00;;
16510;SDS011;8368;48.772;8.754;2022-12-18T01:07:37;31.07;;;12.93;;
16510;SDS011;8368;48.772;8.754;2022-12-18T01:10:03;34.47;;;14.30;;
16510;SDS011;8368;48.772;8.754;2022-12-18T01:12:30;32.60;;;14.33;;
16510;SDS011;8368;48.772;8.754;2022-12-18T01:14:56;32.70;;;15.30;;
16510;SDS011;8368;48.772;8.754;2022-12-18T01:17:21;34.10;;;13.77;;
16510;SDS011;8368;48.772;8.754;2022-12-18T01:19:47;34.53;;;13.93;;
16510;SDS011;8368;48.772;8.754;2022-12-18T01:22:13;34.87;;;14.43;;
16510;SDS011;8368;48.772;8.754;2022-12-18T01:24:38;32.67;;;14.27;;
16510;SDS011;8368;48.772;8.754;2022-12-18T01:27:04;32.90;;;14.23;;
16510;SDS011;8368;48.772;8.754;2022-12-18T01:29:30;28.80;;;13.87;;
16510;SDS011;8368;48.772;8.754;2022-12-18T01:31:56;33.53;;;14.33;;
16510;SDS011;8368;48.772;8.754;2022-12-18T01:34:22;32.40;;;14.33;;
16510;SDS011;8368;48.772;8.754;2022-12-18T01:36:48;34.43;;;15.47;;
16510;SDS011;8368;48.772;8.754;2022-12-18T01:39:14;32.10;;;14.43;;
16510;SDS011;8368;48.772;8.754;2022-12-18T01:41:40;32.10;;;14.43;;
16510;SDS011;8368;48.772;8.754;2022-12-18T01:47:18;35.73;;;14.83;;
16510;SDS011;8368;48.772;8.754;2022-12-18T01:50:10;34.67;;;14.43;;
16510;SDS011;8368;48.772;8.754;2022-12-18T01:52:36;42.40;;;15.17;;
16510;SDS011;8368;48.772;8.754;2022-12-18T01:55:03;35.73;;;16.00;;
16510;SDS011;8368;48.772;8.754;2022-12-18T01:57:31;36.00;;;15.03;;
16510;SDS011;8368;48.772;8.754;2022-12-18T01:59:59;38.07;;;16.43;;
16510;SDS011;8368;48.772;8.754;2022-12-18T02:02:28;39.70;;;16.33;;
16510;SDS011;8368;48.772;8.754;2022-12-18T02:04:55;32.40;;;13.83;;
16510;SDS011;8368;48.772;8.754;2022-12-18T02:07:37;36.53;;;14.67;;
16510;SDS011;8368;48.772;8.754;2022-12-18T02:10:05;33.47;;;14.70;;
16510;SDS011;8368;48.772;8.754;2022-12-18T02:15:13;29.50;;;13.20;;
16510;SDS011;8368;48.772;8.754;2022-12-18T02:17:47;34.40;;;14.60;;
16510;SDS011;8368;48.772;8.754;2022-12-18T02:28:31;36.30;;;15.00;;
16510;SDS011;8368;48.772;8.754;2022-12-18T02:31:01;37.07;;;16.10;;
16510;SDS011;8368;48.772;8.754;2022-12-18T02:33:29;37.63;;;16.37;;
16510;SDS011;8368;48.772;8.754;2022-12-18T02:35:58;30.63;;;14.50;;
16510;SDS011;8368;48.772;8.754;2022-12-18T02:38:26;35.03;;;15.57;;
16510;SDS011;8368;48.772;8.754;2022-12-18T02:40:54;37.20;;;15.40;;
16510;SDS011;8368;48.772;8.754;2022-12-18T02:43:20;38.20;;;15.47;;
16510;SDS011;8368;48.772;8.754;2022-12-18T02:45:47;38.07;;;17.00;;
16510;SDS011;8368;48.772;8.754;2022-12-18T02:48:34;36.87;;;15.30;;
16510;SDS011;8368;48.772;8.754;2022-12-18T02:53:56;35.20;;;15.43;;
16510;SDS011;8368;48.772;8.754;2022-12-18T02:56:29;28.30;;;14.03;;
16510;SDS011;8368;48.772;8.754;2022-12-18T02:59:18;38.73;;;15.83;;
16510;SDS011;8368;48.772;8.754;2022-12-18T03:04:29;36.00;;;15.27;;
16510;SDS011;8368;48.772;8.754;2022-12-18T03:06:57;32.77;;;14.77;;
16510;SDS011;8368;48.772;8.754;2022-12-18T03:09:34;34.37;;;14.33;;
16510;SDS011;8368;48.772;8.754;2022-12-18T03:12:11;33.90;;;14.13;;
16510;SDS011;8368;48.772;8.754;2022-12-18T03:14:50;33.63;;;15.10;;
16510;SDS011;8368;48.772;8.754;2022-12-18T03:17:35;34.90;;;15.50;;
16510;SDS011;8368;48.772;8.754;2022-12-18T03:20:06;37.50;;;14.43;;
16510;SDS011;8368;48.772;8.754;2022-12-18T03:22:39;35.17;;;14.37;;
16510;SDS011;8368;48.772;8.754;2022-12-18T03:25:08;29.37;;;13.20;;
16510;SDS011;8368;48.772;8.754;2022-12-18T03:27:39;30.93;;;13.97;;
16510;SDS011;8368;48.772;8.754;2022-12-18T03:30:13;29.20;;;12.23;;
16510;SDS011;8368;48.772;8.754;2022-12-18T03:35:31;24.77;;;11.23;;
16510;SDS011;8368;48.772;8.754;2022-12-18T03:38:01;21.37;;;10.33;;
16510;SDS011;8368;48.772;8.754;2022-12-18T03:40:29;25.97;;;10.60;;
16510;SDS011;8368;48.772;8.754;2022-12-18T03:43:18;23.20;;;10.13;;
16510;SDS011;8368;48.772;8.754;2022-12-18T03:45:57;26.20;;;10.77;;
16510;SDS011;8368;48.772;8.754;2022-12-18T03:48:44;25.83;;;10.53;;
16510;SDS011;8368;48.772;8.754;2022-12-18T03:51:17;21.80;;;10.60;;
16510;SDS011;8368;48.772;8.754;2022-12-18T03:53:55;22.10;;;11.03;;
16510;SDS011;8368;48.772;8.754;2022-12-18T03:56:23;21.80;;;10.00;;
16510;SDS011;8368;48.772;8.754;2022-12-18T03:58:52;19.27;;;10.70;;
16510;SDS011;8368;48.772;8.754;2022-12-18T04:01:20;22.17;;;10.43;;
16510;SDS011;8368;48.772;8.754;2022-12-18T04:03:50;22.20;;;10.63;;
16510;SDS011;8368;48.772;8.754;2022-12-18T04:06:17;23.83;;;11.20;;
16510;SDS011;8368;48.772;8.754;2022-12-18T04:08:43;24.93;;;11.40;;
16510;SDS011;8368;48.772;8.754;2022-12-18T04:11:09;22.03;;;10.10;;
16510;SDS011;8368;48.772;8.754;2022-12-18T04:13:36;23.87;;;11.37;;
16510;SDS011;8368;48.772;8.754;2022-12-18T04:16:02;23.47;;;11.00;;
16510;SDS011;8368;48.772;8.754;2022-12-18T04:18:28;27.60;;;11.47;;
16510;SDS011;8368;48.772;8.754;2022-12-18T04:20:54;26.97;;;12.00;;
16510;SDS011;8368;48.772;8.754;2022-12-18T04:23:19;26.47;;;12.53;;
16510;SDS011;8368;48.772;8.754;2022-12-18T04:25:45;26.80;;;11.67;;
16510;SDS011;8368;48.772;8.754;2022-12-18T04:28:12;26.07;;;11.47;;
16510;SDS011;8368;48.772;8.754;2022-12-18T04:30:38;26.27;;;12.07;;
16510;SDS011;8368;48.772;8.754;2022-12-18T04:33:03;24.87;;;12.57;;
16510;SDS011;8368;48.772;8.754;2022-12-18T04:35:32;26.27;;;12.77;;
16510;SDS011;8368;48.772;8.754;2022-12-18T04:37:58;27.03;;;12.07;;
16510;SDS011;8368;48.772;8.754;2022-12-18T04:40:23;26.07;;;12.10;;
16510;SDS011;8368;48.772;8.754;2022-12-18T04:42:49;27.13;;;12.37;;
16510;SDS011;8368;48.772;8.754;2022-12-18T04:45:14;26.40;;;11.70;;
16510;SDS011;8368;48.772;8.754;2022-12-18T04:47:40;32.97;;;12.73;;
16510;SDS011;8368;48.772;8.754;2022-12-18T04:50:06;33.70;;;13.57;;
16510;SDS011;8368;48.772;8.754;2022-12-18T04:52:32;21.67;;;11.03;;
16510;SDS011;8368;48.772;8.754;2022-12-18T04:54:57;27.40;;;12.10;;
16510;SDS011;8368;48.772;8.754;2022-12-18T04:57:23;22.03;;;11.20;;
16510;SDS011;8368;48.772;8.754;2022-12-18T04:59:49;28.80;;;12.07;;
16510;SDS011;8368;48.772;8.754;2022-12-18T05:02:14;24.13;;;11.20;;
16510;SDS011;8368;48.772;8.754;2022-12-18T05:04:40;26.40;;;11.50;;
16510;SDS011;8368;48.772;8.754;2022-12-18T05:07:05;26.73;;;12.07;;
16510;SDS011;8368;48.772;8.754;2022-12-18T05:09:31;23.40;;;10.80;;
16510;SDS011;8368;48.772;8.754;2022-12-18T05:11:56;26.90;;;11.77;;
16510;SDS011;8368;48.772;8.754;2022-12-18T05:14:22;27.27;;;11.10;;
16510;SDS011;8368;48.772;8.754;2022-12-18T05:16:48;32.13;;;11.93;;
16510;SDS011;8368;48.772;8.754;2022-12-18T05:19:13;30.40;;;11.83;;
16510;SDS011;8368;48.772;8.754;2022-12-18T05:21:39;36.13;;;12.93;;
16510;SDS011;8368;48.772;8.754;2022-12-18T05:24:04;25.37;;;10.07;;
16510;SDS011;8368;48.772;8.754;2022-12-18T05:26:30;31.03;;;12.43;;
16510;SDS011;8368;48.772;8.754;2022-12-18T05:28:55;36.80;;;12.20;;
16510;SDS011;8368;48.772;8.754;2022-12-18T05:31:21;33.17;;;13.70;;
16510;SDS011;8368;48.772;8.754;2022-12-18T05:33:47;35.60;;;13.07;;
16510;SDS011;8368;48.772;8.754;2022-12-18T05:36:13;37.77;;;13.83;;
16510;SDS011;8368;48.772;8.754;2022-12-18T05:38:39;32.80;;;11.97;;
16510;SDS011;8368;48.772;8.754;2022-12-18T05:41:05;38.90;;;12.83;;
16510;SDS011;8368;48.772;8.754;2022-12-18T05:43:31;37.70;;;12.80;;
16510;SDS011;8368;48.772;8.754;2022-12-18T05:46:21;37.13;;;12.63;;
16510;SDS011;8368;48.772;8.754;2022-12-18T05:48:46;33.77;;;12.97;;
16510;SDS011;8368;48.772;8.754;2022-12-18T05:51:13;42.40;;;14.37;;
16510;SDS011;8368;48.772;8.754;2022-12-18T05:53:40;42.70;;;14.00;;
16510;SDS011;8368;48.772;8.754;2022-12-18T05:56:07;37.93;;;13.23;;
16510;SDS011;8368;48.772;8.754;2022-12-18T05:58:34;43.07;;;15.37;;
16510;SDS011;8368;48.772;8.754;2022-12-18T06:01:08;37.03;;;13.27;;
16510;SDS011;8368;48.772;8.754;2022-12-18T06:03:36;48.70;;;14.50;;
16510;SDS011;8368;48.772;8.754;2022-12-18T06:06:02;34.23;;;13.73;;
16510;SDS011;8368;48.772;8.754;2022-12-18T06:08:27;42.20;;;13.80;;
16510;SDS011;8368;48.772;8.754;2022-12-18T06:10:53;41.67;;;16.03;;
16510;SDS011;8368;48.772;8.754;2022-12-18T06:13:19;45.33;;;15.40;;
16510;SDS011;8368;48.772;8.754;2022-12-18T06:15:45;40.27;;;14.77;;
16510;SDS011;8368;48.772;8.754;2022-12-18T06:18:11;44.73;;;15.77;;
16510;SDS011;8368;48.772;8.754;2022-12-18T06:20:36;36.23;;;13.20;;
16510;SDS011;8368;48.772;8.754;2022-12-18T06:23:04;51.37;;;15.50;;
16510;SDS011;8368;48.772;8.754;2022-12-18T06:25:30;42.53;;;15.57;;
16510;SDS011;8368;48.772;8.754;2022-12-18T06:27:57;49.03;;;16.17;;
16510;SDS011;8368;48.772;8.754;2022-12-18T06:30:22;47.30;;;16.00;;
16510;SDS011;8368;48.772;8.754;2022-12-18T06:32:48;41.90;;;15.60;;
16510;SDS011;8368;48.772;8.754;2022-12-18T06:35:14;45.63;;;15.87;;
16510;SDS011;8368;48.772;8.754;2022-12-18T06:37:40;46.97;;;15.90;;
16510;SDS011;8368;48.772;8.754;2022-12-18T06:40:06;45.67;;;15.93;;
16510;SDS011;8368;48.772;8.754;2022-12-18T06:42:32;43.53;;;15.50;;
16510;SDS011;8368;48.772;8.754;2022-12-18T06:44:57;36.50;;;13.93;;
16510;SDS011;8368;48.772;8.754;2022-12-18T06:47:23;41.23;;;14.43;;
16510;SDS011;8368;48.772;8.754;2022-12-18T06:49:48;46.37;;;16.57;;
16510;SDS011;8368;48.772;8.754;2022-12-18T06:52:15;50.57;;;15.83;;
16510;SDS011;8368;48.772;8.754;2022-12-18T06:54:41;43.47;;;15.10;;
16510;SDS011;8368;48.772;8.754;2022-12-18T06:57:06;44.37;;;15.73;;
16510;SDS011;8368;48.772;8.754;2022-12-18T06:59:32;52.57;;;17.43;;
16510;SDS011;8368;48.772;8.754;2022-12-18T07:01:57;45.87;;;15.53;;
16510;SDS011;8368;48.772;8.754;2022-12-18T07:04:27;38.47;;;14.90;;
16510;SDS011;8368;48.772;8.754;2022-12-18T07:06:55;38.23;;;13.90;;
16510;SDS011;8368;48.772;8.754;2022-12-18T07:09:21;46.70;;;15.73;;
16510;SDS011;8368;48.772;8.754;2022-12-18T07:11:46;33.33;;;13.10;;
16510;SDS011;8368;48.772;8.754;2022-12-18T07:14:12;45.17;;;14.43;;
16510;SDS011;8368;48.772;8.754;2022-12-18T07:16:37;50.57;;;15.13;;
16510;SDS011;8368;48.772;8.754;2022-12-18T07:19:03;45.87;;;13.97;;
16510;SDS011;8368;48.772;8.754;2022-12-18T07:21:28;51.23;;;17.00;;
16510;SDS011;8368;48.772;8.754;2022-12-18T07:23:54;43.77;;;15.07;;
16510;SDS011;8368;48.772;8.754;2022-12-18T07:26:20;45.73;;;15.73;;
16510;SDS011;8368;48.772;8.754;2022-12-18T07:28:46;48.50;;;15.53;;
16510;SDS011;8368;48.772;8.754;2022-12-18T07:31:14;55.67;;;17.53;;
16510;SDS011;8368;48.772;8.754;2022-12-18T07:33:43;39.73;;;14.20;;
16510;SDS011;8368;48.772;8.754;2022-12-18T07:36:10;50.00;;;15.97;;
16510;SDS011;8368;48.772;8.754;2022-12-18T07:38:36;46.57;;;16.67;;
16510;SDS011;8368;48.772;8.754;2022-12-18T07:41:02;47.13;;;15.73;;
16510;SDS011;8368;48.772;8.754;2022-12-18T07:43:33;42.23;;;15.93;;
16510;SDS011;8368;48.772;8.754;2022-12-18T07:45:59;51.63;;;17.47;;
16510;SDS011;8368;48.772;8.754;2022-12-18T07:48:25;48.07;;;16.13;;
16510;SDS011;8368;48.772;8.754;2022-12-18T07:50:51;45.53;;;16.60;;
16510;SDS011;8368;48.772;8.754;2022-12-18T07:53:17;51.53;;;17.77;;
16510;SDS011;8368;48.772;8.754;2022-12-18T07:55:42;51.73;;;14.80;;
16510;SDS011;8368;48.772;8.754;2022-12-18T07:58:08;46.57;;;16.50;;
16510;SDS011;8368;48.772;8.754;2022-12-18T08:00:34;47.50;;;16.20;;
16510;SDS011;8368;48.772;8.754;2022-12-18T08:03:00;47.83;;;16.90;;
16510;SDS011;8368;48.772;8.754;2022-12-18T08:05:26;46.63;;;16.50;;
16510;SDS011;8368;48.772;8.754;2022-12-18T08:07:52;45.70;;;17.17;;
16510;SDS011;8368;48.772;8.754;2022-12-18T08:10:18;50.67;;;14.83;;
16510;SDS011;8368;48.772;8.754;2022-12-18T08:12:45;42.87;;;16.23;;
16510;SDS011;8368;48.772;8.754;2022-12-18T08:15:10;43.83;;;16.73;;
16510;SDS011;8368;48.772;8.754;2022-12-18T08:17:36;44.13;;;14.80;;
16510;SDS011;8368;48.772;8.754;2022-12-18T08:20:01;55.10;;;18.03;;
16510;SDS011;8368;48.772;8.754;2022-12-18T08:22:27;53.10;;;18.27;;
16510;SDS011;8368;48.772;8.754;2022-12-18T08:24:53;48.47;;;17.57;;
16510;SDS011;8368;48.772;8.754;2022-12-18T08:27:18;47.80;;;17.43;;
16510;SDS011;8368;48.772;8.754;2022-12-18T08:29:44;52.40;;;17.97;;
16510;SDS011;8368;48.772;8.754;2022-12-18T08:32:09;51.27;;;18.40;;
16510;SDS011;8368;48.772;8.754;2022-12-18T08:34:35;46.03;;;17.47;;
16510;SDS011;8368;48.772;8.754;2022-12-18T08:37:01;54.70;;;17.17;;
16510;SDS011;8368;48.772;8.754;2022-12-18T08:39:26;49.30;;;17.23;;
16510;SDS011;8368;48.772;8.754;2022-12-18T08:41:52;42.77;;;16.60;;
16510;SDS011;8368;48.772;8.754;2022-12-18T08:44:36;53.70;;;18.03;;
16510;SDS011;8368;48.772;8.754;2022-12-18T08:47:05;53.23;;;18.43;;
16510;SDS011;8368;48.772;8.754;2022-12-18T08:49:31;52.40;;;17.33;;
16510;SDS011;8368;48.772;8.754;2022-12-18T08:51:57;52.60;;;18.07;;
16510;SDS011;8368;48.772;8.754;2022-12-18T08:54:23;53.17;;;19.20;;
16510;SDS011;8368;48.772;8.754;2022-12-18T08:56:49;54.67;;;19.27;;
16510;SDS011;8368;48.772;8.754;2022-12-18T08:59:18;54.33;;;18.00;;
16510;SDS011;8368;48.772;8.754;2022-12-18T09:01:44;52.03;;;18.93;;
16510;SDS011;8368;48.772;8.754;2022-12-18T09:04:11;51.80;;;19.57;;
16510;SDS011;8368;48.772;8.754;2022-12-18T09:06:36;50.17;;;17.60;;
16510;SDS011;8368;48.772;8.754;2022-12-18T09:09:02;53.83;;;18.33;;
16510;SDS011;8368;48.772;8.754;2022-12-18T09:11:30;52.67;;;19.20;;
16510;SDS011;8368;48.772;8.754;2022-12-18T09:13:56;53.60;;;18.57;;
16510;SDS011;8368;48.772;8.754;2022-12-18T09:16:23;48.00;;;19.33;;
16510;SDS011;8368;48.772;8.754;2022-12-18T09:18:50;55.97;;;18.70;;
16510;SDS011;8368;48.772;8.754;2022-12-18T09:21:20;51.37;;;17.87;;
16510;SDS011;8368;48.772;8.754;2022-12-18T09:23:49;59.17;;;20.07;;
16510;SDS011;8368;48.772;8.754;2022-12-18T09:26:16;65.60;;;20.13;;
16510;SDS011;8368;48.772;8.754;2022-12-18T09:28:41;50.97;;;18.53;;
16510;SDS011;8368;48.772;8.754;2022-12-18T09:31:07;60.47;;;18.80;;
16510;SDS011;8368;48.772;8.754;2022-12-18T09:33:35;50.27;;;17.87;;
16510;SDS011;8368;48.772;8.754;2022-12-18T09:36:05;56.03;;;19.00;;
16510;SDS011;8368;48.772;8.754;2022-12-18T09:38:33;48.70;;;19.10;;
16510;SDS011;8368;48.772;8.754;2022-12-18T09:41:00;49.30;;;18.73;;
16510;SDS011;8368;48.772;8.754;2022-12-18T09:43:34;54.67;;;18.63;;
16510;SDS011;8368;48.772;8.754;2022-12-18T09:46:03;53.47;;;19.77;;
16510;SDS011;8368;48.772;8.754;2022-12-18T09:48:34;55.30;;;18.77;;
16510;SDS011;8368;48.772;8.754;2022-12-18T09:51:26;54.00;;;20.50;;
16510;SDS011;8368;48.772;8.754;2022-12-18T09:54:12;52.73;;;17.70;;
16510;SDS011;8368;48.772;8.754;2022-12-18T09:56:51;57.97;;;18.30;;
16510;SDS011;8368;48.772;8.754;2022-12-18T09:59:37;55.93;;;18.17;;
16510;SDS011;8368;48.772;8.754;2022-12-18T10:02:14;53.83;;;18.57;;
16510;SDS011;8368;48.772;8.754;2022-12-18T10:04:41;50.60;;;18.80;;
16510;SDS011;8368;48.772;8.754;2022-12-18T10:07:15;52.60;;;18.77;;
16510;SDS011;8368;48.772;8.754;2022-12-18T10:09:55;50.80;;;19.10;;
16510;SDS011;8368;48.772;8.754;2022-12-18T10:12:32;52.57;;;18.83;;
16510;SDS011;8368;48.772;8.754;2022-12-18T10:15:48;54.30;;;19.63;;
16510;SDS011;8368;48.772;8.754;2022-12-18T10:21:11;50.97;;;19.63;;
16510;SDS011;8368;48.772;8.754;2022-12-18T10:23:42;48.03;;;18.93;;
16510;SDS011;8368;48.772;8.754;2022-12-18T10:26:16;46.70;;;18.20;;
16510;SDS011;8368;48.772;8.754;2022-12-18T10:28:42;50.23;;;18.00;;
16510;SDS011;8368;48.772;8.754;2022-12-18T10:31:16;51.67;;;19.70;;
16510;SDS011;8368;48.772;8.754;2022-12-18T10:33:43;52.07;;;19.23;;
16510;SDS011;8368;48.772;8.754;2022-12-18T10:36:09;55.43;;;19.30;;
16510;SDS011;8368;48.772;8.754;2022-12-18T10:38:35;42.87;;;17.13;;
16510;SDS011;8368;48.772;8.754;2022-12-18T10:41:22;46.27;;;17.80;;
16510;SDS011;8368;48.772;8.754;2022-12-18T10:44:10;47.07;;;18.23;;
16510;SDS011;8368;48.772;8.754;2022-12-18T10:46:46;55.10;;;19.23;;
16510;SDS011;8368;48.772;8.754;2022-12-18T10:49:18;51.77;;;19.83;;
16510;SDS011;8368;48.772;8.754;2022-12-18T10:51:47;46.20;;;17.67;;
16510;SDS011;8368;48.772;8.754;2022-12-18T10:54:21;53.30;;;19.13;;
16510;SDS011;8368;48.772;8.754;2022-12-18T10:56:47;52.47;;;19.33;;
16510;SDS011;8368;48.772;8.754;2022-12-18T10:59:14;48.80;;;18.57;;
16510;SDS011;8368;48.772;8.754;2022-12-18T11:04:16;52.73;;;19.47;;
16510;SDS011;8368;48.772;8.754;2022-12-18T11:06:53;50.87;;;18.17;;
16510;SDS011;8368;48.772;8.754;2022-12-18T11:09:35;55.03;;;19.03;;
16510;SDS011;8368;48.772;8.754;2022-12-18T11:12:02;58.50;;;19.97;;
16510;SDS011;8368;48.772;8.754;2022-12-18T11:14:43;51.80;;;19.60;;
16510;SDS011;8368;48.772;8.754;2022-12-18T11:17:25;56.00;;;21.37;;
16510;SDS011;8368;48.772;8.754;2022-12-18T11:20:07;53.17;;;20.63;;
16510;SDS011;8368;48.772;8.754;2022-12-18T11:23:00;48.97;;;18.77;;
16510;SDS011;8368;48.772;8.754;2022-12-18T11:25:29;50.63;;;19.30;;
16510;SDS011;8368;48.772;8.754;2022-12-18T11:27:56;43.60;;;19.17;;
16510;SDS011;8368;48.772;8.754;2022-12-18T11:30:28;48.87;;;19.03;;
16510;SDS011;8368;48.772;8.754;2022-12-18T11:33:03;55.13;;;19.33;;
16510;SDS011;8368;48.772;8.754;2022-12-18T11:38:06;48.00;;;19.30;;
16510;SDS011;8368;48.772;8.754;2022-12-18T11:40:43;62.70;;;21.53;;
16510;SDS011;8368;48.772;8.754;2022-12-18T11:46:06;54.37;;;19.90;;
16510;SDS011;8368;48.772;8.754;2022-12-18T11:48:43;60.60;;;22.20;;
16510;SDS011;8368;48.772;8.754;2022-12-18T11:54:40;53.13;;;19.63;;
16510;SDS011;8368;48.772;8.754;2022-12-18T11:59:58;55.50;;;20.37;;
16510;SDS011;8368;48.772;8.754;2022-12-18T12:08:09;58.07;;;21.07;;
16510;SDS011;8368;48.772;8.754;2022-12-18T12:11:07;55.13;;;20.67;;
16510;SDS011;8368;48.772;8.754;2022-12-18T12:16:59;68.60;;;29.90;;
16510;SDS011;8368;48.772;8.754;2022-12-18T12:19:38;62.37;;;24.10;;
16510;SDS011;8368;48.772;8.754;2022-12-18T12:22:22;62.90;;;23.27;;
16510;SDS011;8368;48.772;8.754;2022-12-18T12:27:59;60.23;;;21.47;;
16510;SDS011;8368;48.772;8.754;2022-12-18T12:30:48;53.57;;;20.50;;
16510;SDS011;8368;48.772;8.754;2022-12-18T12:33:37;49.77;;;21.17;;
16510;SDS011;8368;48.772;8.754;2022-12-18T12:38:52;55.83;;;21.27;;
16510;SDS011;8368;48.772;8.754;2022-12-18T12:41:24;54.43;;;21.20;;
16510;SDS011;8368;48.772;8.754;2022-12-18T12:44:15;55.43;;;22.07;;
16510;SDS011;8368;48.772;8.754;2022-12-18T12:46:45;57.53;;;20.73;;
16510;SDS011;8368;48.772;8.754;2022-12-18T12:49:14;53.57;;;20.20;;
16510;SDS011;8368;48.772;8.754;2022-12-18T12:51:44;52.57;;;21.00;;
16510;SDS011;8368;48.772;8.754;2022-12-18T12:54:19;50.77;;;19.97;;
16510;SDS011;8368;48.772;8.754;2022-12-18T12:59:25;59.07;;;21.20;;
16510;SDS011;8368;48.772;8.754;2022-12-18T13:04:50;56.73;;;21.60;;
16510;SDS011;8368;48.772;8.754;2022-12-18T13:07:29;60.60;;;22.07;;
16510;SDS011;8368;48.772;8.754;2022-12-18T13:10:11;60.23;;;22.87;;
16510;SDS011;8368;48.772;8.754;2022-12-18T13:12:57;55.30;;;22.47;;
16510;SDS011;8368;48.772;8.754;2022-12-18T13:25:52;54.97;;;22.27;;
16510;SDS011;8368;48.772;8.754;2022-12-18T13:28:49;54.73;;;21.10;;
16510;SDS011;8368;48.772;8.754;2022-12-18T13:31:10;50.50;;;22.33;;
16510;SDS011;8368;48.772;8.754;2022-12-18T13:33:38;53.53;;;21.37;;
16510;SDS011;8368;48.772;8.754;2022-12-18T13:36:13;53.70;;;22.10;;
16510;SDS011;8368;48.772;8.754;2022-12-18T13:38:42;56.43;;;23.33;;
16510;SDS011;8368;48.772;8.754;2022-12-18T13:43:44;53.93;;;21.63;;
16510;SDS011;8368;48.772;8.754;2022-12-18T13:46:24;57.27;;;21.63;;
16510;SDS011;8368;48.772;8.754;2022-12-18T13:48:55;51.50;;;21.53;;
16510;SDS011;8368;48.772;8.754;2022-12-18T13:51:23;53.23;;;21.77;;
16510;SDS011;8368;48.772;8.754;2022-12-18T13:53:51;58.37;;;23.70;;
16510;SDS011;8368;48.772;8.754;2022-12-18T13:56:24;55.60;;;23.00;;
16510;SDS011;8368;48.772;8.754;2022-12-18T14:01:44;63.87;;;25.23;;
16510;SDS011;8368;48.772;8.754;2022-12-18T14:04:31;62.97;;;26.17;;
16510;SDS011;8368;48.772;8.754;2022-12-18T14:07:04;58.83;;;23.40;;
16510;SDS011;8368;48.772;8.754;2022-12-18T14:09:42;62.50;;;24.97;;
16510;SDS011;8368;48.772;8.754;2022-12-18T14:12:30;56.47;;;23.43;;
16510;SDS011;8368;48.772;8.754;2022-12-18T14:15:28;57.97;;;22.57;;
16510;SDS011;8368;48.772;8.754;2022-12-18T14:20:49;59.80;;;24.70;;
16510;SDS011;8368;48.772;8.754;2022-12-18T14:26:02;61.73;;;21.73;;
16510;SDS011;8368;48.772;8.754;2022-12-18T14:28:28;54.23;;;22.83;;
16510;SDS011;8368;48.772;8.754;2022-12-18T14:30:54;58.97;;;22.40;;
16510;SDS011;8368;48.772;8.754;2022-12-18T14:33:22;57.40;;;21.87;;
16510;SDS011;8368;48.772;8.754;2022-12-18T14:35:57;59.53;;;23.43;;
16510;SDS011;8368;48.772;8.754;2022-12-18T14:38:27;56.97;;;22.27;;
16510;SDS011;8368;48.772;8.754;2022-12-18T14:40:55;63.17;;;23.67;;
16510;SDS011;8368;48.772;8.754;2022-12-18T14:43:28;58.17;;;22.53;;
16510;SDS011;8368;48.772;8.754;2022-12-18T14:45:56;64.20;;;24.27;;
16510;SDS011;8368;48.772;8.754;2022-12-18T14:51:00;59.77;;;22.10;;
16510;SDS011;8368;48.772;8.754;2022-12-18T14:53:32;61.20;;;23.20;;
16510;SDS011;8368;48.772;8.754;2022-12-18T14:56:00;58.17;;;22.87;;
16510;SDS011;8368;48.772;8.754;2022-12-18T14:58:27;70.17;;;24.70;;
16510;SDS011;8368;48.772;8.754;2022-12-18T15:00:53;61.43;;;23.83;;
16510;SDS011;8368;48.772;8.754;2022-12-18T15:03:19;67.43;;;24.83;;
16510;SDS011;8368;48.772;8.754;2022-12-18T15:05:46;65.67;;;25.83;;
16510;SDS011;8368;48.772;8.754;2022-12-18T15:08:36;62.23;;;24.03;;
16510;SDS011;8368;48.772;8.754;2022-12-18T15:11:02;65.03;;;23.60;;
16510;SDS011;8368;48.772;8.754;2022-12-18T15:13:28;67.27;;;23.57;;
16510;SDS011;8368;48.772;8.754;2022-12-18T15:15:57;64.43;;;25.13;;
16510;SDS011;8368;48.772;8.754;2022-12-18T15:18:30;60.33;;;25.43;;
16510;SDS011;8368;48.772;8.754;2022-12-18T15:21:07;58.37;;;24.17;;
16510;SDS011;8368;48.772;8.754;2022-12-18T15:26:10;64.80;;;25.53;;
16510;SDS011;8368;48.772;8.754;2022-12-18T15:28:39;60.23;;;23.43;;
16510;SDS011;8368;48.772;8.754;2022-12-18T15:36:18;69.27;;;26.67;;
16510;SDS011;8368;48.772;8.754;2022-12-18T15:38:46;64.07;;;24.17;;
16510;SDS011;8368;48.772;8.754;2022-12-18T15:41:13;72.90;;;24.53;;
16510;SDS011;8368;48.772;8.754;2022-12-18T15:43:41;69.90;;;24.57;;
16510;SDS011;8368;48.772;8.754;2022-12-18T15:46:09;66.13;;;24.43;;
16510;SDS011;8368;48.772;8.754;2022-12-18T15:48:41;72.60;;;25.17;;
16510;SDS011;8368;48.772;8.754;2022-12-18T15:51:18;68.07;;;24.67;;
16510;SDS011;8368;48.772;8.754;2022-12-18T15:53:46;70.97;;;24.97;;
16510;SDS011;8368;48.772;8.754;2022-12-18T15:56:14;68.30;;;24.43;;
16510;SDS011;8368;48.772;8.754;2022-12-18T15:58:59;70.80;;;25.13;;
16510;SDS011;8368;48.772;8.754;2022-12-18T16:01:25;75.23;;;25.90;;
16510;SDS011;8368;48.772;8.754;2022-12-18T16:03:53;76.40;;;25.50;;
16510;SDS011;8368;48.772;8.754;2022-12-18T16:06:19;65.23;;;23.93;;
16510;SDS011;8368;48.772;8.754;2022-12-18T16:08:44;77.07;;;25.53;;
16510;SDS011;8368;48.772;8.754;2022-12-18T16:14:18;67.77;;;25.07;;
16510;SDS011;8368;48.772;8.754;2022-12-18T16:16:45;71.40;;;25.73;;
16510;SDS011;8368;48.772;8.754;2022-12-18T16:19:13;76.33;;;27.07;;
16510;SDS011;8368;48.772;8.754;2022-12-18T16:21:39;74.47;;;27.17;;
16510;SDS011;8368;48.772;8.754;2022-12-18T16:24:05;68.83;;;24.90;;